createdAt,value
2022-08-19T07:13:25.098Z,19.16
2022-08-19T07:18:28.211Z,19.33
2022-08-19T07:23:31.519Z,19.47
2022-08-19T07:28:34.336Z,19.53
2022-08-19T07:33:37.677Z,19.57
2022-08-19T07:38:42.467Z,19.62
2022-08-19T07:43:47.927Z,19.64
2022-08-19T07:48:51.279Z,19.84
2022-08-19T07:53:53.500Z,19.81
2022-08-19T08:04:20.506Z,20.14
2022-08-19T08:09:27.231Z,20.10
2022-08-19T08:14:37.188Z,20.09
2022-08-19T08:19:42.071Z,20.23
2022-08-19T08:24:43.680Z,20.28
2022-08-19T08:29:46.022Z,20.32
2022-08-19T08:34:50.056Z,20.65
2022-08-19T08:39:55.448Z,20.77
2022-08-19T08:45:06.756Z,20.78
2022-08-19T08:50:39.123Z,20.92
2022-08-19T08:55:42.456Z,21.08
2022-08-19T09:00:48.680Z,21.02
2022-08-19T09:06:04.853Z,21.12
2022-08-19T09:11:44.963Z,21.04
2022-08-19T09:16:46.681Z,20.97
2022-08-19T09:21:49.044Z,20.99
2022-08-19T09:26:52.958Z,20.97
2022-08-19T09:31:54.700Z,21.14
2022-08-19T09:36:59.256Z,21.29
2022-08-19T09:42:00.875Z,21.33
2022-08-19T09:47:02.828Z,21.43
2022-08-19T09:52:04.709Z,21.40
2022-08-19T09:57:07.620Z,21.39
2022-08-19T10:02:11.321Z,21.57
2022-08-19T10:07:13.098Z,21.71
2022-08-19T10:12:17.882Z,21.68
2022-08-19T10:17:26.340Z,21.49
2022-08-19T10:22:29.142Z,21.53
2022-08-19T10:27:32.971Z,21.61
2022-08-19T10:32:35.008Z,21.51
2022-08-19T10:37:49.800Z,21.85
2022-08-19T10:42:58.865Z,21.94
2022-08-19T10:48:00.413Z,22.13
2022-08-19T10:53:09.678Z,22.04
2022-08-19T10:58:14.387Z,22.20
2022-08-19T11:03:15.970Z,22.24
2022-08-19T11:08:23.093Z,22.52
2022-08-19T11:13:26.204Z,22.41
2022-08-19T11:18:28.098Z,22.36
2022-08-19T11:23:29.796Z,22.47
2022-08-19T11:28:31.440Z,23.05
2022-08-19T11:33:33.755Z,23.02
